NWS Home NWS Lubbock West Texas Mesonet                      Daily Summary For 03/24/2019

Latest   N   C   S   Daily Sum   3hrΔ   24hrΔ   Soil Data 
Site Map   24hr Precip   72hr Precip   Google Plot

Previous  Date  


Station Time of Last Max Temp Min Temp Max/Min Dew Pt. Max/Min RH 10m Avg Wind 2m Avg Wind Peak Gust @ 33ft (mph) Potential Evapotranspiration
mm/day or in/day
Rain Sum Solar Rad
MJ/m^2
% Clear Day Red Flag
Abernathy 5ENE 02:25 AM 48 42 28 /27 57 / 44 8.9  (SW) 4.1 12.9 mph 294° @ 0110 AM 1.5 or 0.06 0.00 0 0 0
Adrian 6WSW 02:25 AM 50 42 36 /29 79 / 44 9.1  (W) 6.5 20.2 mph 12° @ 0205 AM 1.5 or 0.06 0.00 0 0 0
Aiken 3WSW 02:25 AM 45 40 28 /27 60 / 50 8.4  (SW) 2.7 13.4 mph 272° @ 1240 AM 1.3 or 0.05 0.00 0 0 0
Amarillo 15NNW 02:25 AM 53 44 38 /36 78 / 53 11.3  (S) 7.5 22.3 mph 315° @ 0113 AM 1.5 or 0.06 0.00 0 0 0
Amarillo 7SSE 02:25 AM 46 38 38 /34 94 / 72 7.5  (S) 3.9 18.1 mph 230° @ 0207 AM 0.8 or 0.03 0.00 0 0 0
Amarillo 9NNE 02:25 AM 54 44 38 /36 77 / 50 8.6  (S) 6 20.1 mph 329° @ 0130 AM 1.5 or 0.06 0.00 0 0 0
Amherst 1NE 02:25 AM 51 46 24 /22 43 / 32 10.8  (W) 5.8 13.7 mph 251° @ 0135 AM 2.3 or 0.09 0.00 0 0 0
Andrews 2E 02:25 AM 55 51 29 /23 43 / 29 8.6  (SW) 3.8 13.5 mph 186° @ 0135 AM 2.3 or 0.09 0.00 0 0 0
Anton 6SSW 02:25 AM 49 42 29 /25 51 / 43 9.3  (SW) 5 16 mph 211° @ 1225 AM 1.8 or 0.07 0.00 0 0 0
Aspermont 3NE 02:25 AM 56 53 35 /35 52 / 46 9.1  (S) 3.8 12.7 mph 183° @ 0225 AM 2 or 0.08 0.00 0 0 0
Big Bend NP - Persimmon Gap 02:25 AM 68 59 45 /21 50 / 17 11.2  (NE) 8.8 21.3 mph 74° @ 1256 AM 3.3 or 0.13 0.00 0 0 0
Big Lake 1WNW 02:25 AM 62 57 55 /52 92 / 73 6.2  (S) 3.8 15.8 mph 182° @ 1202 AM 1 or 0.04 0.00 0 0 0
Bootleg 11WNW 02:25 AM 47 42 29 /27 56 / 45 11  (W) 5.9 18 mph 322° @ 0225 AM 1.8 or 0.07 0.00 0 0 0
Boys Ranch 1WSW 02:25 AM 49 40 37 /33 78 / 56 10.5  (NE) 8.4 25.9 mph 33° @ 0122 AM 1.3 or 0.05 0.00 0 0 0
Brownfield 2S 02:25 AM 51 43 28 /25 55 / 36 7.9  (SW) 3.3 11 mph 235° @ 0225 AM 1.8 or 0.07 0.00 0 0 0
Canadian 6E 02:25 AM 50 45 40 /35 77 / 57 9.2  (E) 5.4 19.8 mph 359° @ 0122 AM 1.3 or 0.05 0.00 0 0 0
Caprock Canyons State Park 02:25 AM 62 55 25 /21 31 / 21 13.2  (SW) 8.2 23 mph 248° @ 0138 AM 3.8 or 0.15 0.00 0 0 0
Childress 2NNE 02:10 AM 55 51 42 /42 74 / 64 8.9  (SE) 5 11.4 mph 117° @ 1245 AM 1.3 or 0.05 0.00 0 0 0
Clarendon 2WSW 02:25 AM 54 45 38 /36 73 / 55 5.9  (SE) 3.1 16.2 mph 133° @ 1245 AM 1.3 or 0.05 0.00 0 0 0
Claude 12SW 02:25 AM 54 51 36 /31 54 / 41 7.8  (SE) 5 15.4 mph 237° @ 0225 AM 1.8 or 0.07 0.00 0 0 0
Clyde 2WNW 02:25 AM 60 57 57 /56 96 / 90 10.7  (S) 7.8 16.9 mph 171° @ 0146 AM 0.8 or 0.03 0.00 0 0 0
Colorado City 5NW 02:25 AM 55 50 37 /35 59 / 50 6.9  (SE) 3.2 13 mph 152° @ 0154 AM 1.5 or 0.06 0.00 0 0 0
Coyanosa 2N 02:25 AM 58 49 34 /29 56 / 33 7.4  (SW) 3.2 11.7 mph 183° @ 0159 AM 2 or 0.08 0.00 0 0 0
Crane 1NNW 02:25 AM 66 62 55 /44 77 / 45 17.3  (S) 13.6 27 mph 174° @ 1231 AM 2.5 or 0.1 0.00 0 0 0
Crowell 1E 02:25 AM 60 51 38 /33 59 / 36 3.2  (SW) 1.7 8.8 mph 3° @ 1232 AM 1.3 or 0.05 0.00 0 0 0
Dell City 02:25 AM 51 46 30 /23 49 / 33 4.6  (W) 1.9 11.4 mph 173° @ 0131 AM 1.5 or 0.06 0.00 0 0 0
Denver City 7WNW 02:25 AM 47 44 23 /20 42 / 34 9.4  (SW) 4.4 14.4 mph 244° @ 0200 AM 2 or 0.08 0.00 0 0 0
Dimmitt 2NE 02:25 AM 49 44 32 /30 63 / 48 9.7  (SW) 5.4 13.6 mph 261° @ 0130 AM 1.5 or 0.06 0.00 0 0 0
Dora NM 2SW 02:25 AM 48 45 18 /17 34 / 29 8.8  (SW) 5.1 11.9 mph 246° @ 1205 AM 2 or 0.08 0.00 0 0 0
Dozier 3W 02:25 AM 53 50 42 /40 71 / 62 2.1  (N) 1 6.4 mph 244° @ 0221 AM 0.8 or 0.03 0.00 0 0 0
Earth 9WSW 02:25 AM 59 42 27 /20 54 / 22 9.9  (SW) 7.2 17.8 mph 229° @ 1231 AM 2.5 or 0.1 0.00 0 0 0
Endee NM 2SW 02:25 AM 51 43 35 /27 73 / 39 9.7  (W) 6.3 21.8 mph 4° @ 0153 AM 1.8 or 0.07 0.00 0 0 0
Estelline 3SSE 02:25 AM 58 47 43 /39 75 / 54 4.2  (E) 2.1 12.1 mph 116° @ 1226 AM 1 or 0.04 0.00 0 0 0
Floydada 2NNE 02:25 AM 57 42 26 /20 51 / 24 10.2  (S) 5.7 16.2 mph 203° @ 1215 AM 2.5 or 0.1 0.00 0 0 0
Fluvanna 3WNW 02:25 AM 55 52 32 /30 44 / 39 5.6  (S) 1.8 12.6 mph 187° @ 0225 AM 1.8 or 0.07 0.00 0 0 0
Fort Chadbourne 02:25 AM 57 49 45 /40 75 / 53 3.6  (S) 1.6 8.3 mph 224° @ 1238 AM 1 or 0.04 0.00 0 0 0
Fort Lancaster 02:25 AM 65 63 60 /58 90 / 76 5.9  (SE) 3.7 11.3 mph 122° @ 1204 AM 1 or 0.04 0.00 0 0 0
Fort Lewis CO 02:25 AM 34 31 24 /22 71 / 63 2.6  (NW) 1.1 6.4 mph 334° @ 0100 AM 0.5 or 0.02 0.00 0 0 0
Fort McKavett 02:25 AM 64 62 60 /59 92 / 84 8.3  (S) 5.4 22.6 mph 170° @ 1244 AM 0.8 or 0.03 0.00 0 0 0
Friona 2NE 02:25 AM 47 40 33 /31 73 / 53 9.3  (SW) 4.9 14.7 mph 244° @ 0105 AM 1.3 or 0.05 0.00 0 0 0
Fritch 1WNW 02:25 AM 52 46 38 /36 74 / 54 7.3  (N) 4.9 21 mph 39° @ 0124 AM 1.3 or 0.05 0.00 0 0 0
Gail 2ESE 02:25 AM 56 53 27 /26 37 / 31 7.7  (SW) 3.6 10.9 mph 219° @ 0200 AM 2.3 or 0.09 0.00 0 0 0
Goodlett 3W 02:25 AM 55 51 42 /41 71 / 64 9.3  (E) 5.1 13.6 mph 109° @ 1235 AM 1.5 or 0.06 0.00 0 0 0
Goodnight 02:25 AM 52 48 41 /37 74 / 57 7.6  (S) 3.7 14.3 mph 150° @ 0223 AM 1.3 or 0.05 0.00 0 0 0
Graham 5SSW 02:25 AM 58 52 27 /23 37 / 26 4.9  (SW) 4 11.7 mph 237° @ 0225 AM 1.8 or 0.07 0.00 0 0 0
Guadalupe Mtns Natl Park 02:25 AM 60 53 18 /18 24 / 19 12  (W) 8.9 27.4 mph 240° @ 0106 AM 3.6 or 0.14 0.00 0 0 0
Guthrie 10WSW 02:25 AM 56 53 31 /30 43 / 37 6.5  (SW) 2.4 12.4 mph 204° @ 1250 AM 2 or 0.08 0.00 0 0 0
Hackberry 2 SSE 02:25 AM 61 58 34 /32 40 / 34 15.4  (S) 10.2 20.8 mph 209° @ 0208 AM 3.6 or 0.14 0.00 0 0 0
Happy 1E 02:25 AM 46 42 35 /33 73 / 62 11.2  (W) 7.6 17.1 mph 262° @ 0154 AM 1.3 or 0.05 0.00 0 0 0
Hart 3N 02:25 AM 44 40 28 /26 62 / 49 8.7  (W) 4.2 14.7 mph 266° @ 0220 AM 1.3 or 0.05 0.00 0 0 0
Haskell 1NW 02:25 AM 57 53 48 /36 83 / 45 8.1  (SW) 4.9 13.3 mph 173° @ 0125 AM 1.5 or 0.06 0.00 0 0 0
Hereford 2NW 02:25 AM 46 41 35 /32 76 / 59 11.3  (W) 0.1 16.1 mph 288° @ 0130 AM 1.3 or 0.05 0.00 0 0 0
Hobbs NM 5NW 02:25 AM 53 47 20 /16 34 / 23 7.8  (SW) 4.6 11.9 mph 273° @ 0136 AM 2.3 or 0.09 0.00 0 0 0
Jayton 1SSE 02:25 AM 55 52 33 /32 48 / 41 4.9  (SW) 0.9 7.3 mph 219° @ 0140 AM 1.5 or 0.06 0.00 0 0 0
Junction 1SSW 02:25 AM 64 63 61 /60 90 / 86 5.8  (S) 3.9 11.4 mph 189° @ 1223 AM 0.8 or 0.03 0.00 0 0 0
Knox City 3NW 02:25 AM 51 47 39 /37 74 / 58 7  (SW) 3.1 12.1 mph 151° @ 0155 AM 1.3 or 0.05 0.00 0 0 0
Lake Alan Henry 1NW 02:25 AM 55 52 33 /32 48 / 42 6.6  (SW) 2.4 7.9 mph 223° @ 1246 AM 1.8 or 0.07 0.00 0 0 0
Lake McClellan 2NW 02:25 AM 54 51 36 /34 57 / 48 9.5  (SE) 6.2 16.8 mph 160° @ 0154 AM 1.8 or 0.07 0.00 0 0 0
Lamesa 2SE 02:25 AM 52 45 30 /27 57 / 38 5.7  (S) 1.7 12.9 mph 204° @ 1250 AM 1.5 or 0.06 0.00 0 0 0
Lesley 2S 02:25 AM 56 49 42 /40 74 / 54 4.7  (SE) 2.3 11.8 mph 87° @ 0124 AM 1 or 0.04 0.00 0 0 0
Levelland 4S 02:25 AM 49 41 33 /29 71 / 46 8.5  (S) 3.5 11.3 mph 238° @ 0210 AM 1.5 or 0.06 0.00 0 0 0
Lomax 1SSE 02:25 AM 54 48 34 /30 57 / 41 7.3  (SE) 3.5 12.1 mph 206° @ 0115 AM 1.8 or 0.07 0.00 0 0 0
Lubbock 3WNW TTU 02:25 AM 54 49 23 /22 34 / 28 6.3  (S) 0.7 10.7 mph 208° @ 1255 AM 2 or 0.08 0.00 0 0 0
McCamey 1SSW 02:25 AM 63 61 56 /49 84 / 59 7.5  (SE) 5.3 12.4 mph 139° @ 1218 AM 1.3 or 0.05 0.00 0 0 0
McLean 1E 02:25 AM 53 51 37 /36 61 / 54 8.1  (SE) 5.3 13.4 mph 141° @ 0140 AM 1.5 or 0.06 0.00 0 0 0
Memphis 1NE 02:25 AM 56 46 42 /41 85 / 60 1.8  (SE) 0.8 7.5 mph 95° @ 1215 AM 0.8 or 0.03 0.00 0 0 0
Menard 2NW 02:25 AM 65 63 60 /59 88 / 83 5.9  (SW) 3.9 17.6 mph 185° @ 0116 AM 0.8 or 0.03 0.00 0 0 0
Mertzon 3NNE 02:25 AM 58 54 52 /48 89 / 71 6.7  (S) 3.3 10.1 mph 191° @ 0200 AM 1 or 0.04 0.00 0 0 0
Morton 1ENE 02:25 AM 49 42 24 /20 47 / 31 7.4  (SW) 3.7 11.3 mph 300° @ 0225 AM 1.8 or 0.07 0.00 0 0 0
Muleshoe 2SSW 02:25 AM 46 40 26 /23 57 / 40 7.3  (SW) 3 10.1 mph 227° @ 1210 AM 1.5 or 0.06 0.00 0 0 0
New Home 02:25 AM 53 47 26 /24 42 / 32 8.3  (S) 3.6 10.7 mph 199° @ 0116 AM 2 or 0.08 0.00 0 0 0
Northfield 1S 01:40 AM 56 52 37 /32 56 / 41 5.6  (N) 2.9 11.3 mph 53° @ 1220 AM 1.5 or 0.06 0.00 0 0 0
O'Donnell 1N 02:25 AM 53 46 28 /23 50 / 31 5.9  (S) 2.2 9.3 mph 194° @ 0140 AM 1.8 or 0.07 0.00 0 0 0
Odell 4ENE 02:25 AM 59 52 45 /42 74 / 59 9.2  (E) 4.7 14.8 mph 95° @ 1234 AM 1.5 or 0.06 0.00 0 0 0
Olton 6S 02:25 AM 47 42 27 /25 54 / 45 10.9  (W) 5.7 15 mph 258° @ 1205 AM 1.8 or 0.07 0.00 0 0 0
Paducah 10SW 02:25 AM 58 56 29 /28 37 / 33 13.8  (SW) 7.7 19.5 mph 230° @ 0200 AM 3.3 or 0.13 0.00 0 0 0
Palo Duro 4E (JA Ranch) 02:25 AM 50 41 38 /35 80 / 61 4.5  (SW) 3.9 9.4 mph 254° @ 1212 AM 0.8 or 0.03 0.00 0 0 0
Palo Duro Canyon SP Floor 02:25 AM 47 43 41 /38 88 / 78 2.3  (W) 0.4 9.8 mph 331° @ 0222 AM 0.5 or 0.02 0.00 0 0 0
Palo Duro Canyon State Park Rim 02:25 AM 52 47 36 /32 63 / 47 8.4  (SW) 3.7 20.2 mph 254° @ 0220 AM 1.5 or 0.06 0.00 0 0 0
Palo Duro Reservoir 1NW 02:25 AM 44 39 39 /36 90 / 80 12.2  (N) 6.7 15.1 mph 345° @ 0225 AM 0.8 or 0.03 0.00 0 0 0
Pampa 2E 02:25 AM 51 44 38 /36 79 / 59 7.1  (SE) 3.8 18.6 mph 333° @ 0145 AM 1.3 or 0.05 0.00 0 0 0
Panhandle 1SSW 02:25 AM 50 45 39 /36 76 / 61 9.5  (SE) 5.9 18.6 mph 328° @ 0201 AM 1.3 or 0.05 0.00 0 0 0
Plains 3N 02:25 AM 52 41 29 /21 61 / 29 7.8  (S) 3.7 11.9 mph 226° @ 0100 AM 1.8 or 0.07 0.00 0 0 0
Plainview 1S 02:25 AM 51 45 29 /26 52 / 39 6.2  (SW) 4 11.9 mph 257° @ 1215 AM 1.5 or 0.06 0.00 0 0 0
Post 1NE 02:25 AM 58 55 25 /23 31 / 26 8.4  (SW) 4.9 12.1 mph 227° @ 0220 AM 2.8 or 0.11 0.00 0 0 0
Ralls 1SE 02:25 AM 50 46 30 /26 52 / 39 9.2  (SW) 3.1 11.9 mph 220° @ 0205 AM 1.8 or 0.07 0.00 0 0 0
Reese Center 02:25 AM 49 44 31 /29 59 / 46 7.9  (SW) 3.3 13.3 mph 210° @ 1235 AM 1.5 or 0.06 0.00 0 0 0
Roaring Springs 3N 02:25 AM 55 52 31 /27 44 / 34 7.7  (SW) 4.6 13.7 mph 235° @ 0225 AM 2 or 0.08 0.00 0 0 0
Romero 11 SSW 02:25 AM 52 42 38 /32 80 / 46 18.6  (NW) 14.4 36.3 mph 354° @ 1250 AM 1.8 or 0.07 0.00 0 0 0
Rotan 5W 02:25 AM 58 55 33 /33 43 / 39 12.2  (S) 5.4 17.2 mph 180° @ 0222 AM 2.8 or 0.11 0.00 0 0 0
San Angelo 7NW 02:25 AM 61 58 53 /46 81 / 65 5.8  (S) 2.9 10.7 mph 181° @ 0125 AM 1.3 or 0.05 0.00 0 0 0
Seagraves 1SW 02:25 AM 46 42 31 /27 64 / 49 7.9  (SW) 0 10.7 mph 215° @ 1245 AM 1.3 or 0.05 0.00 0 0 0
Segovia 7SSW 02:25 AM 64 63 60 /59 90 / 86 11.7  (S) 8.1 23 mph 173° @ 1254 AM 1 or 0.04 0.00 0 0 0
Seminole 2NNE 02:10 AM 56 52 22 /19 30 / 23 8.5  (SW) 4.6 13.2 mph 248° @ 0145 AM 2.5 or 0.1 0.00 0 0 0
Seymour 3NW 02:25 AM 59 55 54 /50 92 / 74 7.5  (S) 4.4 10.9 mph 169° @ 1235 AM 0.8 or 0.03 0.00 0 0 0
Sierra Blanca 1SSE 02:25 AM 60 54 20 /18 25 / 20 2.3  (SW) 1.7 6.6 mph 266° @ 0225 AM 1.5 or 0.06 0.00 0 0 0
Silverton 7ESE 02:25 AM 49 45 31 /27 56 / 44 11.1  (SW) 6.3 14.2 mph 232° @ 0130 AM 2 or 0.08 0.00 0 0 0
Slaton 2NE 02:25 AM 53 49 26 /25 41 / 33 12.4  (S) 6.3 15 mph 199° @ 1205 AM 2.5 or 0.1 0.00 0 0 0
Snyder 3E 02:25 AM 57 52 35 /33 53 / 41 7  (SE) 1.4 12 mph 174° @ 0225 AM 1.8 or 0.07 0.00 0 0 0
Snyder 3SSW 02:25 AM 56 52 35 /33 52 / 42 6.7  (S) 2.5 14 mph 183° @ 0157 AM 1.8 or 0.07 0.00 0 0 0
South Plains 3ENE 02:25 AM 51 45 27 /26 48 / 37 8.8  (SW) 4.8 16.2 mph 283° @ 0110 AM 2 or 0.08 0.00 0 0 0
Spur 1W 02:25 AM 52 45 30 /25 57 / 35 3.4  (SW) 0.1 7.1 mph 232° @ 1205 AM 1.3 or 0.05 0.00 0 0 0
St. Lawrence 5SW 02:25 AM 58 54 55 /28 89 / 37 10.6  (S) 6.7 17.5 mph 173° @ 1230 AM 1.8 or 0.07 0.00 0 0 0
Stamford 5ESE 02:25 AM 58 54 54 /35 86 / 46 10.8  (S) 7.7 17 mph 178° @ 0213 AM 1.3 or 0.05 0.00 0 0 0
Sterling City 4WSW 02:25 AM 61 45 53 /33 77 / 42 11.2  (NW) 7.8 23.1 mph 179° @ 0209 AM 1.5 or 0.06 0.00 0 0 0
Stinnett 1NNW 02:25 AM 53 42 39 /34 86 / 50 14.7  (SE) 10.5 25.9 mph 358° @ 1224 AM 1.5 or 0.06 0.00 0 0 0
Sundown 8WSW 02:25 AM 49 40 27 /25 58 / 39 10.6  (SW) 3.6 12.9 mph 212° @ 1205 AM 1.8 or 0.07 0.00 0 0 0
Sweetwater 11SW 02:25 AM 59 55 47 /32 65 / 37 8.8  (SE) 5.1 16.3 mph 176° @ 0144 AM 2.3 or 0.09 0.00 0 0 0
Tahoka 3NNE 02:25 AM 55 46 27 /22 46 / 27 7.4  (S) 3.1 9.4 mph 198° @ 0100 AM 2 or 0.08 0.00 0 0 0
Tarzan 2WNW 02:25 AM 55 50 35 /31 53 / 41 8.6  (S) 3.8 12.3 mph 210° @ 0204 AM 2 or 0.08 0.00 0 0 0
Tatum NM 2SW 02:25 AM 44 39 25 /23 55 / 43 8.9  (SW) 4.1 13.3 mph 275° @ 0100 AM 1.5 or 0.06 0.00 0 0 0
Throckmorton 1SW 02:25 AM 62 60 58 /58 92 / 89 10.5  (S) 5.4 18.9 mph 182° @ 0156 AM 0.8 or 0.03 0.00 0 0 0
Tulia 2ENE 02:25 AM 51 49 27 /26 42 / 38 12.4  (SW) 8.6 18.1 mph 251° @ 0220 AM 2.5 or 0.1 0.00 0 0 0
Turkey 2WSW 02:25 AM 56 50 30 /27 46 / 32 10.7  (SW) 6.9 16.8 mph 227° @ 0210 AM 2.5 or 0.1 0.00 0 0 0
Umbarger 3NNE 02:25 AM 46 43 39 /35 81 / 67 11.7  (SW) 8 19.6 mph 299° @ 0214 AM 1 or 0.04 0.00 0 0 0
Van Horn 3ENE 02:25 AM 58 50 19 /17 26 / 21 7.3  (SW) 3.4 14 mph 212° @ 0159 AM 2.5 or 0.1 0.00 0 0 0
Vigo Park 02:25 AM 45 41 30 /29 61 / 55 9.8  (SW) 5.1 13.6 mph 250° @ 0225 AM 1.5 or 0.06 0.00 0 0 0
Wall 2E 02:25 AM 65 59 56 /50 81 / 69 7.9  (SW) 4.7 11.6 mph 216° @ 0136 AM 1.3 or 0.05 0.00 0 0 0
Weinert 2NNE 02:25 AM 60 56 51 /34 79 / 38 11.9  (S) 7.5 19.3 mph 189° @ 0209 AM 2.3 or 0.09 0.00 0 0 0
Welch 02:25 AM 48 42 28 /22 56 / 37 5.7  (S) 1.3 11.8 mph 206° @ 1230 AM 1.3 or 0.05 0.00 0 0 0
White River Lake 6NW 02:20 AM 59 55 23 /21 29 / 23 8.2  (SW) 4.9 12.4 mph 199° @ 0105 AM 2.8 or 0.11 0.00 0 0 0
Wolfforth 6SSW 02:25 AM 48 45 26 /25 47 / 40 9  (S) 3.2 10.9 mph 209° @ 0100 AM 1.8 or 0.07 0.00 0 0 0

WestTexas Mesonet Home    Site Map/Menu  National Weather Service Lubbock   Soil Data   Latest Observation Page   Previous  Date